Time;durP1;ratioP1;P1;durP2;ratioP2;P2;SDS_P1;SDS_P2;PMS_P1;PMS_P2;Temp;Humidity;BMP_temperature;BMP_pressure;BME280_temperature;BME280_humidity;BME280_pressure;Samples;Min_cycle;Max_cycle;Signal;HPM_P1;HPM_P2
2022/05/17 00:00:20;;;;;;;;;;;;;;;;;;4984957;28;20079;-61
2022/05/17 00:02:45;;;;;;;;;;;;;;;;;;4980412;28;19990;-60
2022/05/17 00:05:11;;;;;;;;;;;;;;;;;;4994773;28;19913;-60
2022/05/17 00:07:36;;;;;;;;;;;;;;;;;;4985782;28;20413;-60
2022/05/17 00:10:01;;;;;;;;;;;;;;;;;;4993171;28;19928;-61
2022/05/17 00:12:27;;;;;;;;;;;;;;;;;;4987141;28;20411;-60
2022/05/17 00:14:52;;;;;;;;;;;;;;;;;;4989730;28;20075;-60
2022/05/17 00:17:18;;;;;;;;;;;;;;;;;;5007924;28;20001;-61
2022/05/17 00:19:44;;;;;;;;;;;;;;;;;;4988279;28;19917;-61
2022/05/17 00:22:09;;;;;;;;;;;;;;;;;;4992429;28;19922;-60
2022/05/17 00:24:34;;;;;;;;;;;;;;;;;;4987234;28;19940;-60
2022/05/17 00:26:59;;;;;;;;;;;;;;;;;;4985855;28;19984;-60
2022/05/17 00:29:25;;;;;;;;;;;;;;;;;;4993069;28;19928;-61
2022/05/17 00:31:50;;;;;;;;;;;;;;;;;;4987189;28;19947;-60
2022/05/17 00:34:15;;;;;;;;;;;;;;;;;;4993601;28;20040;-60
2022/05/17 00:36:40;;;;;;;;;;;;;;;;;;4987598;28;19967;-61
2022/05/17 00:39:06;;;;;;;;;;;;;;;;;;4985799;28;19945;-60
2022/05/17 00:41:31;;;;;;;;;;;;;;;;;;5005695;28;19921;-60
2022/05/17 00:46:40;;;;;;;;;;;;;;;;;;4986590;28;20515;-61
2022/05/17 00:49:06;;;;;;;;;;;;;;;;;;4990737;28;20374;-61
2022/05/17 00:51:31;;;;;;;;;;;;;;;;;;4991423;28;19918;-61
2022/05/17 00:53:56;;;;;;;;;;;;;;;;;;4993539;28;19996;-61
2022/05/17 00:56:21;;;;;;;;;;;;;;;;;;4987579;28;19921;-61
2022/05/17 00:58:46;;;;;;;;;;;;;;;;;;4987563;28;19921;-61
2022/05/17 01:01:12;;;;;;;;;;;;;;;;;;4999631;28;20048;-61
2022/05/17 01:03:37;;;;;;;;;;;;;;;;;;4986566;28;19963;-61
2022/05/17 01:06:02;;;;;;;;;;;;;;;;;;4992710;28;19937;-61
2022/05/17 01:08:27;;;;;;;;;;;;;;;;;;4991996;28;20417;-60
2022/05/17 01:10:53;;;;;;;;;;;;;;;;;;4996630;28;19933;-60
2022/05/17 01:16:02;;;;;;;;;;;;;;;;;;4987993;28;19929;-61
2022/05/17 01:18:27;;;;;;;;;;;;;;;;;;4999695;28;19917;-60
2022/05/17 01:20:52;;;;;;;;;;;;;;;;;;4989465;28;20279;-60
2022/05/17 01:23:18;;;;;;;;;;;;;;;;;;4986105;28;19972;-61
2022/05/17 01:25:44;;;;;;;;;;;;;;;;;;4994792;28;20330;-60
2022/05/17 01:28:09;;;;;;;;;;;;;;;;;;4990568;28;19920;-60
2022/05/17 01:30:34;;;;;;;;;;;;;;;;;;4992961;28;20153;-61
2022/05/17 01:32:59;;;;;;;;;;;;;;;;;;4994748;28;19917;-60
2022/05/17 01:35:25;;;;;;;;;;;;;;;;;;5000629;28;19914;-60
2022/05/17 01:37:50;;;;;;;;;;;;;;;;;;4996490;28;19920;-60
2022/05/17 01:40:16;;;;;;;;;;;;;;;;;;4985500;28;20433;-60
2022/05/17 01:42:41;;;;;;;;;;;;;;;;;;4995848;28;19929;-60
2022/05/17 01:45:06;;;;;;;;;;;;;;;;;;4990699;28;20322;-60
2022/05/17 01:47:31;;;;;;;;;;;;;;;;;;4988035;28;19925;-59
2022/05/17 01:49:57;;;;;;;;;;;;;;;;;;4993716;28;19932;-60
2022/05/17 01:52:22;;;;;;;;;;;;;;;;;;4987176;28;19968;-60
2022/05/17 01:54:47;;;;;;;;;;;;;;;;;;4990358;28;19924;-60
2022/05/17 01:57:12;;;;;;;;;;;;;;;;;;4984343;28;19948;-60
2022/05/17 01:59:37;;;;;;;;;;;;;;;;;;4985534;28;20280;-60
2022/05/17 02:02:03;;;;;;;;;;;;;;;;;;4994519;28;20510;-60
2022/05/17 02:04:29;;;;;;;;;;;;;;;;;;4987378;28;20412;-59
2022/05/17 02:06:56;;;;;;;;;;;;;;;;;;5011642;28;19918;-60
2022/05/17 02:09:21;;;;;;;;;;;;;;;;;;4987099;28;19918;-60
2022/05/17 02:11:46;;;;;;;;;;;;;;;;;;5002125;28;19922;-60
2022/05/17 02:14:11;;;;;;;;;;;;;;;;;;4996335;28;20352;-60
2022/05/17 02:16:37;;;;;;;;;;;;;;;;;;4989984;28;20356;-60
2022/05/17 02:19:02;;;;;;;;;;;;;;;;;;4992659;28;20375;-60
2022/05/17 02:21:27;;;;;;;;;;;;;;;;;;4987010;28;19917;-60
2022/05/17 02:23:52;;;;;;;;;;;;;;;;;;4988124;28;20447;-59
2022/05/17 02:26:17;;;;;;;;;;;;;;;;;;5005957;28;20825;-59
2022/05/17 02:28:43;;;;;;;;;;;;;;;;;;4989632;28;19984;-60
2022/05/17 02:31:09;;;;;;;;;;;;;;;;;;4995163;28;19921;-60
2022/05/17 02:33:34;;;;;;;;;;;;;;;;;;5001988;28;19917;-59
2022/05/17 02:35:59;;;;;;;;;;;;;;;;;;4989627;28;19917;-60
2022/05/17 02:38:26;;;;;;;;;;;;;;;;;;4995099;28;19924;-60
2022/05/17 02:40:51;;;;;;;;;;;;;;;;;;4988762;28;19917;-59
2022/05/17 02:43:17;;;;;;;;;;;;;;;;;;4993765;28;19947;-60
2022/05/17 02:45:42;;;;;;;;;;;;;;;;;;4989824;28;19921;-60
2022/05/17 02:48:07;;;;;;;;;;;;;;;;;;4988118;28;19922;-59
2022/05/17 02:50:32;;;;;;;;;;;;;;;;;;4996967;28;20394;-60
2022/05/17 02:52:57;;;;;;;;;;;;;;;;;;4989601;28;19954;-60
2022/05/17 02:55:23;;;;;;;;;;;;;;;;;;4998034;28;20538;-59
2022/05/17 02:57:48;;;;;;;;;;;;;;;;;;4988627;28;19921;-60
2022/05/17 03:00:13;;;;;;;;;;;;;;;;;;4990886;28;19924;-61
2022/05/17 03:02:38;;;;;;;;;;;;;;;;;;4994716;28;19953;-60
2022/05/17 03:05:04;;;;;;;;;;;;;;;;;;4986448;28;20014;-59
2022/05/17 03:07:29;;;;;;;;;;;;;;;;;;4994967;28;20017;-61
2022/05/17 03:09:54;;;;;;;;;;;;;;;;;;4989401;28;20036;-60
2022/05/17 03:12:19;;;;;;;;;;;;;;;;;;4987993;28;19926;-59
2022/05/17 03:14:44;;;;;;;;;;;;;;;;;;4995333;28;20374;-60
2022/05/17 03:17:11;;;;;;;;;;;;;;;;;;4989466;28;19922;-59
2022/05/17 03:19:36;;;;;;;;;;;;;;;;;;4998593;28;19918;-59
2022/05/17 03:22:01;;;;;;;;;;;;;;;;;;4989637;28;19917;-59
2022/05/17 03:24:26;;;;;;;;;;;;;;;;;;4990307;28;19924;-60
2022/05/17 03:26:52;;;;;;;;;;;;;;;;;;4995475;28;20260;-60
2022/05/17 03:29:17;;;;;;;;;;;;;;;;;;4993054;28;19933;-60
2022/05/17 03:31:42;;;;;;;;;;;;;;;;;;4999360;28;20009;-60
2022/05/17 03:34:07;;;;;;;;;;;;;;;;;;4988649;28;20678;-60
2022/05/17 03:36:33;;;;;;;;;;;;;;;;;;4988777;28;19975;-60
2022/05/17 03:38:58;;;;;;;;;;;;;;;;;;4992511;28;19917;-59
2022/05/17 03:41:23;;;;;;;;;;;;;;;;;;5001696;28;19965;-59
2022/05/17 03:43:48;;;;;;;;;;;;;;;;;;4992994;28;19976;-60
2022/05/17 03:46:14;;;;;;;;;;;;;;;;;;5004720;28;19918;-60
2022/05/17 03:48:39;;;;;;;;;;;;;;;;;;4994279;28;20612;-60
2022/05/17 03:51:05;;;;;;;;;;;;;;;;;;5002990;28;19918;-60
2022/05/17 03:53:30;;;;;;;;;;;;;;;;;;4987249;28;19968;-60
2022/05/17 03:55:55;;;;;;;;;;;;;;;;;;4992518;28;20344;-59
2022/05/17 03:58:20;;;;;;;;;;;;;;;;;;4985277;28;20462;-59
2022/05/17 04:00:46;;;;;;;;;;;;;;;;;;4990108;28;19925;-60
2022/05/17 04:03:11;;;;;;;;;;;;;;;;;;4994148;28;19964;-60
2022/05/17 04:05:37;;;;;;;;;;;;;;;;;;4987694;28;20370;-60
2022/05/17 04:08:03;;;;;;;;;;;;;;;;;;4990803;28;19922;-61
2022/05/17 04:10:28;;;;;;;;;;;;;;;;;;4986008;28;19918;-58
2022/05/17 04:12:53;;;;;;;;;;;;;;;;;;4987054;28;19922;-59
2022/05/17 04:15:18;;;;;;;;;;;;;;;;;;4998027;28;19957;-59
2022/05/17 04:17:43;;;;;;;;;;;;;;;;;;4996259;28;19936;-60
2022/05/17 04:20:10;;;;;;;;;;;;;;;;;;4990757;28;19918;-61
2022/05/17 04:22:35;;;;;;;;;;;;;;;;;;4987038;28;19928;-60
2022/05/17 04:25:01;;;;;;;;;;;;;;;;;;4986841;28;19924;-60
2022/05/17 04:27:26;;;;;;;;;;;;;;;;;;4992205;28;19921;-59
2022/05/17 04:29:51;;;;;;;;;;;;;;;;;;4986644;28;19945;-60
2022/05/17 04:32:16;;;;;;;;;;;;;;;;;;4993584;28;19917;-61
2022/05/17 04:34:42;;;;;;;;;;;;;;;;;;4990057;28;19967;-59
2022/05/17 04:37:07;;;;;;;;;;;;;;;;;;4986300;28;19921;-59
2022/05/17 04:39:34;;;;;;;;;;;;;;;;;;4992706;28;20786;-59
2022/05/17 04:42:01;;;;;;;;;;;;;;;;;;4987936;28;20257;-59
2022/05/17 04:44:26;;;;;;;;;;;;;;;;;;4987749;28;20389;-60
2022/05/17 04:46:52;;;;;;;;;;;;;;;;;;4988631;28;19925;-62
2022/05/17 04:49:17;;;;;;;;;;;;;;;;;;4985737;28;19932;-59
2022/05/17 04:51:42;;;;;;;;;;;;;;;;;;4993862;28;19917;-60
2022/05/17 04:54:07;;;;;;;;;;;;;;;;;;4997574;28;19921;-59
2022/05/17 04:56:34;;;;;;;;;;;;;;;;;;4992939;28;19917;-59
2022/05/17 04:58:59;;;;;;;;;;;;;;;;;;4992060;28;19917;-59
2022/05/17 05:01:24;;;;;;;;;;;;;;;;;;4987133;28;19966;-60
2022/05/17 05:03:50;;;;;;;;;;;;;;;;;;5009183;28;20021;-59
2022/05/17 05:06:15;;;;;;;;;;;;;;;;;;4984672;28;19917;-59
2022/05/17 05:08:40;;;;;;;;;;;;;;;;;;4981951;28;19921;-59
2022/05/17 05:11:05;;;;;;;;;;;;;;;;;;4990590;28;19926;-60
2022/05/17 05:13:31;;;;;;;;;;;;;;;;;;4987401;28;20332;-60
2022/05/17 05:15:56;;;;;;;;;;;;;;;;;;4994591;28;20390;-59
2022/05/17 05:18:21;;;;;;;;;;;;;;;;;;4988012;28;20814;-58
2022/05/17 05:20:47;;;;;;;;;;;;;;;;;;4998715;28;20460;-58
2022/05/17 05:23:12;;;;;;;;;;;;;;;;;;4993599;28;20755;-59
2022/05/17 05:25:37;;;;;;;;;;;;;;;;;;4987823;28;21730;-59
2022/05/17 05:28:03;;;;;;;;;;;;;;;;;;4997197;28;19922;-59
2022/05/17 05:30:29;;;;;;;;;;;;;;;;;;4989799;28;20255;-60
2022/05/17 05:32:54;;;;;;;;;;;;;;;;;;4989928;28;19917;-60
2022/05/17 05:35:20;;;;;;;;;;;;;;;;;;4996246;28;19929;-60
2022/05/17 05:37:45;;;;;;;;;;;;;;;;;;4987226;28;19917;-61
2022/05/17 05:40:11;;;;;;;;;;;;;;;;;;4991161;28;20254;-60
2022/05/17 05:42:36;;;;;;;;;;;;;;;;;;4984939;28;20396;-60
2022/05/17 05:45:01;;;;;;;;;;;;;;;;;;4992431;28;19921;-60
2022/05/17 05:47:27;;;;;;;;;;;;;;;;;;5000770;28;19918;-60
2022/05/17 05:49:52;;;;;;;;;;;;;;;;;;4984862;28;19917;-60
2022/05/17 05:52:18;;;;;;;;;;;;;;;;;;5007691;28;19928;-60
2022/05/17 05:54:43;;;;;;;;;;;;;;;;;;4986999;28;19987;-60
2022/05/17 05:57:08;;;;;;;;;;;;;;;;;;4991759;28;19918;-60
2022/05/17 05:59:33;;;;;;;;;;;;;;;;;;4981793;28;20365;-61
2022/05/17 06:02:01;;;;;;;;;;;;;;;;;;4985235;28;19917;-60
2022/05/17 06:04:27;;;;;;;;;;;;;;;;;;4990466;28;20301;-61
2022/05/17 06:06:54;;;;;;;;;;;;;;;;;;4964050;28;19931;-61
2022/05/17 06:09:19;;;;;;;;;;;;;;;;;;4987119;28;19959;-61
2022/05/17 06:11:44;;;;;;;;;;;;;;;;;;4974454;28;20420;-62
2022/05/17 06:14:09;;;;;;;;;;;;;;;;;;4983789;28;19980;-61
2022/05/17 06:16:34;;;;;;;;;;;;;;;;;;4991311;28;20306;-61
2022/05/17 06:19:00;;;;;;;;;;;;;;;;;;4984086;28;19950;-62
2022/05/17 06:21:25;;;;;;;;;;;;;;;;;;4990284;28;20319;-62
2022/05/17 06:23:51;;;;;;;;;;;;;;;;;;4983845;28;19928;-62
2022/05/17 06:26:16;;;;;;;;;;;;;;;;;;4985456;28;19910;-62
2022/05/17 06:28:41;;;;;;;;;;;;;;;;;;4989145;28;20241;-62
2022/05/17 06:31:07;;;;;;;;;;;;;;;;;;4985106;28;20370;-61
2022/05/17 06:33:33;;;;;;;;;;;;;;;;;;4989672;28;19975;-62
2022/05/17 06:35:58;;;;;;;;;;;;;;;;;;4981253;28;20354;-62
2022/05/17 06:38:23;;;;;;;;;;;;;;;;;;4983366;28;19944;-61
2022/05/17 06:40:48;;;;;;;;;;;;;;;;;;4990723;28;20270;-62
2022/05/17 06:43:14;;;;;;;;;;;;;;;;;;4984564;28;19963;-62
2022/05/17 06:45:39;;;;;;;;;;;;;;;;;;5007076;28;19922;-63
2022/05/17 06:48:04;;;;;;;;;;;;;;;;;;4989073;28;19919;-62
2022/05/17 06:50:29;;;;;;;;;;;;;;;;;;4988210;28;19981;-62
2022/05/17 06:52:54;;;;;;;;;;;;;;;;;;4994339;28;20016;-62
2022/05/17 06:55:22;;;;;;;;;;;;;;;;;;4988221;28;20349;-60
2022/05/17 06:57:48;;;;;;;;;;;;;;;;;;4993073;28;19914;-60
2022/05/17 07:00:17;;;;;;;;;;;;;;;;;;4984823;28;19917;-61
2022/05/17 07:02:43;;;;;;;;;;;;;;;;;;4987219;28;20009;-61
2022/05/17 07:05:09;;;;;;;;;;;;;;;;;;4997689;28;19917;-60
2022/05/17 07:07:34;;;;;;;;;;;;;;;;;;4986426;28;19953;-61
2022/05/17 07:15:27;;;;;;;;;;;;;;;;;;4989770;28;19918;-61
2022/05/17 07:17:52;;;;;;;;;;;;;;;;;;4993980;28;19980;-61
2022/05/17 07:20:17;;;;;;;;;;;;;;;;;;4987078;28;19964;-62
2022/05/17 07:22:43;;;;;;;;;;;;;;;;;;4987459;28;19964;-61
2022/05/17 07:25:08;;;;;;;;;;;;;;;;;;4994203;28;20030;-61
2022/05/17 07:27:33;;;;;;;;;;;;;;;;;;4988084;28;19918;-61
2022/05/17 07:29:58;;;;;;;;;;;;;;;;;;4976244;28;19984;-61
2022/05/17 07:32:24;;;;;;;;;;;;;;;;;;4971373;28;19921;-60
2022/05/17 07:34:49;;;;;;;;;;;;;;;;;;4972841;28;20005;-62
2022/05/17 07:37:14;;;;;;;;;;;;;;;;;;4978631;28;19917;-62
2022/05/17 07:39:39;;;;;;;;;;;;;;;;;;4970532;28;20176;-62
2022/05/17 07:42:06;;;;;;;;;;;;;;;;;;4994708;28;20297;-61
2022/05/17 07:44:32;;;;;;;;;;;;;;;;;;4990581;28;19925;-61
2022/05/17 07:46:58;;;;;;;;;;;;;;;;;;4989741;28;20112;-61
2022/05/17 07:49:23;;;;;;;;;;;;;;;;;;4992973;28;19944;-61
2022/05/17 07:51:48;;;;;;;;;;;;;;;;;;5003486;28;19925;-62
2022/05/17 07:54:14;;;;;;;;;;;;;;;;;;5004907;28;19921;-62
2022/05/17 07:56:39;;;;;;;;;;;;;;;;;;4985887;28;19917;-62
2022/05/17 07:59:05;;;;;;;;;;;;;;;;;;4991294;28;19917;-62
2022/05/17 08:01:31;;;;;;;;;;;;;;;;;;5003693;28;20005;-62
2022/05/17 08:03:56;;;;;;;;;;;;;;;;;;4982992;28;19921;-62
2022/05/17 08:06:21;;;;;;;;;;;;;;;;;;4990253;28;19917;-62
2022/05/17 08:08:47;;;;;;;;;;;;;;;;;;4993915;28;20353;-62
2022/05/17 08:11:12;;;;;;;;;;;;;;;;;;4987462;28;19967;-62
2022/05/17 08:13:38;;;;;;;;;;;;;;;;;;4997082;28;19918;-62
2022/05/17 08:16:04;;;;;;;;;;;;;;;;;;4994012;28;19913;-62
2022/05/17 08:18:30;;;;;;;;;;;;;;;;;;4990920;28;19948;-62
2022/05/17 08:20:55;;;;;;;;;;;;;;;;;;4985298;28;20012;-62
2022/05/17 08:23:20;;;;;;;;;;;;;;;;;;4984677;28;19929;-62
2022/05/17 08:28:29;;;;;;;;;;;;;;;;;;4986858;28;19963;-63
2022/05/17 08:30:54;;;;;;;;;;;;;;;;;;4987683;28;20024;-62
2022/05/17 08:33:20;;;;;;;;;;;;;;;;;;4992810;28;19917;-62
2022/05/17 08:35:45;;;;;;;;;;;;;;;;;;4985375;28;20209;-62
2022/05/17 08:38:11;;;;;;;;;;;;;;;;;;4991722;28;20004;-63
2022/05/17 08:40:36;;;;;;;;;;;;;;;;;;5005102;28;20020;-62
2022/05/17 08:43:01;;;;;;;;;;;;;;;;;;4992464;28;20401;-62
2022/05/17 08:45:26;;;;;;;;;;;;;;;;;;4992039;28;20485;-61
2022/05/17 08:47:52;;;;;;;;;;;;;;;;;;4986517;28;19924;-62
2022/05/17 08:50:17;;;;;;;;;;;;;;;;;;4992063;28;20016;-62
2022/05/17 08:52:43;;;;;;;;;;;;;;;;;;4986655;28;20340;-62
2022/05/17 08:55:10;;;;;;;;;;;;;;;;;;4981031;28;20445;-62
2022/05/17 08:57:36;;;;;;;;;;;;;;;;;;4990319;28;19925;-62
2022/05/17 09:00:01;;;;;;;;;;;;;;;;;;4988550;28;20023;-62
2022/05/17 09:02:27;;;;;;;;;;;;;;;;;;4989840;28;19921;-63
2022/05/17 09:04:53;;;;;;;;;;;;;;;;;;4984582;28;20299;-62
2022/05/17 09:07:18;;;;;;;;;;;;;;;;;;4985481;28;20250;-62
2022/05/17 09:09:43;;;;;;;;;;;;;;;;;;4986962;28;19925;-62
2022/05/17 09:12:09;;;;;;;;;;;;;;;;;;4991747;28;19917;-63
2022/05/17 09:14:34;;;;;;;;;;;;;;;;;;4992647;28;19918;-63
2022/05/17 09:16:59;;;;;;;;;;;;;;;;;;4982931;28;19918;-63
2022/05/17 09:19:25;;;;;;;;;;;;;;;;;;4987399;28;19917;-63
2022/05/17 09:21:53;;;;;;;;;;;;;;;;;;4992045;28;19984;-63
2022/05/17 09:24:18;;;;;;;;;;;;;;;;;;4999673;28;19920;-63
2022/05/17 09:26:45;;;;;;;;;;;;;;;;;;4989056;28;20296;-62
2022/05/17 09:29:10;;;;;;;;;;;;;;;;;;4985035;28;20936;-63
2022/05/17 09:31:35;;;;;;;;;;;;;;;;;;4982353;28;20020;-62
2022/05/17 09:34:00;;;;;;;;;;;;;;;;;;4980989;28;20360;-62
2022/05/17 09:36:26;;;;;;;;;;;;;;;;;;4987080;28;19918;-63
2022/05/17 09:38:51;;;;;;;;;;;;;;;;;;4992617;28;19921;-62
2022/05/17 09:41:17;;;;;;;;;;;;;;;;;;4982442;28;20701;-63
2022/05/17 09:43:44;;;;;;;;;;;;;;;;;;4981488;28;19923;-63
2022/05/17 09:46:09;;;;;;;;;;;;;;;;;;5005452;28;19921;-63
2022/05/17 09:54:02;;;;;;;;;;;;;;;;;;4984349;28;20122;-64
2022/05/17 09:56:27;;;;;;;;;;;;;;;;;;4977514;28;20275;-63
2022/05/17 09:58:53;;;;;;;;;;;;;;;;;;4981990;28;19944;-64
2022/05/17 10:01:19;;;;;;;;;;;;;;;;;;4973863;28;20443;-63
2022/05/17 10:03:44;;;;;;;;;;;;;;;;;;4976952;28;19929;-63
2022/05/17 10:06:09;;;;;;;;;;;;;;;;;;4981849;28;20670;-63
2022/05/17 10:08:35;;;;;;;;;;;;;;;;;;4979682;28;19932;-63
2022/05/17 10:11:00;;;;;;;;;;;;;;;;;;4984192;28;20187;-62
2022/05/17 10:13:25;;;;;;;;;;;;;;;;;;4982564;28;19971;-62
2022/05/17 10:15:51;;;;;;;;;;;;;;;;;;4998931;28;19929;-62
2022/05/17 10:18:16;;;;;;;;;;;;;;;;;;4993993;28;19917;-62
2022/05/17 10:20:42;;;;;;;;;;;;;;;;;;4988193;28;20632;-62
2022/05/17 10:23:07;;;;;;;;;;;;;;;;;;4994337;28;19918;-63
2022/05/17 10:25:32;;;;;;;;;;;;;;;;;;4986983;28;20779;-63
2022/05/17 10:27:57;;;;;;;;;;;;;;;;;;4988189;28;20518;-63
2022/05/17 10:30:23;;;;;;;;;;;;;;;;;;4992585;28;19926;-63
2022/05/17 10:32:49;;;;;;;;;;;;;;;;;;4991798;28;19921;-63
2022/05/17 10:35:15;;;;;;;;;;;;;;;;;;4993020;28;19940;-63
2022/05/17 10:37:41;;;;;;;;;;;;;;;;;;4989427;28;19921;-62
2022/05/17 10:40:06;;;;;;;;;;;;;;;;;;4988857;28;20298;-63
2022/05/17 10:42:31;;;;;;;;;;;;;;;;;;4995676;28;19922;-62
2022/05/17 10:44:56;;;;;;;;;;;;;;;;;;4989063;28;19977;-63
2022/05/17 10:47:22;;;;;;;;;;;;;;;;;;4995925;28;19917;-62
2022/05/17 10:49:48;;;;;;;;;;;;;;;;;;4989041;28;19922;-63
2022/05/17 10:52:13;;;;;;;;;;;;;;;;;;4987606;28;20125;-63
2022/05/17 10:54:39;;;;;;;;;;;;;;;;;;4996946;28;19922;-63
2022/05/17 10:57:06;;;;;;;;;;;;;;;;;;4982782;28;19924;-63
2022/05/17 10:59:31;;;;;;;;;;;;;;;;;;4998363;28;19949;-63
2022/05/17 11:01:57;;;;;;;;;;;;;;;;;;4989067;28;19967;-63
2022/05/17 11:04:22;;;;;;;;;;;;;;;;;;4988370;28;19917;-64
2022/05/17 11:06:48;;;;;;;;;;;;;;;;;;4994023;28;20412;-63
2022/05/17 11:09:13;;;;;;;;;;;;;;;;;;4991938;28;19925;-63
2022/05/17 11:11:38;;;;;;;;;;;;;;;;;;4986255;28;19918;-63
2022/05/17 11:14:03;;;;;;;;;;;;;;;;;;4987880;28;19918;-63
2022/05/17 11:16:28;;;;;;;;;;;;;;;;;;4994343;28;19964;-63
2022/05/17 11:18:54;;;;;;;;;;;;;;;;;;5010787;28;19922;-64
2022/05/17 11:21:19;;;;;;;;;;;;;;;;;;4988793;28;19918;-63
2022/05/17 11:23:45;;;;;;;;;;;;;;;;;;5008178;28;20213;-63
2022/05/17 11:26:10;;;;;;;;;;;;;;;;;;4990244;28;20009;-64
2022/05/17 11:28:37;;;;;;;;;;;;;;;;;;4989684;28;19924;-63
2022/05/17 11:31:02;;;;;;;;;;;;;;;;;;4992658;28;19922;-64
2022/05/17 11:33:28;;;;;;;;;;;;;;;;;;4983599;28;19917;-64
2022/05/17 11:35:53;;;;;;;;;;;;;;;;;;4995544;28;20044;-65
2022/05/17 11:38:19;;;;;;;;;;;;;;;;;;4989352;28;19917;-65
2022/05/17 11:40:44;;;;;;;;;;;;;;;;;;4987038;28;19917;-65
2022/05/17 11:45:55;;;;;;;;;;;;;;;;;;4990278;28;19925;-64
2022/05/17 11:48:20;;;;;;;;;;;;;;;;;;4994460;28;19917;-65
2022/05/17 11:50:46;;;;;;;;;;;;;;;;;;5002360;28;19979;-65
2022/05/17 11:53:11;;;;;;;;;;;;;;;;;;4990551;28;20030;-65
2022/05/17 11:55:36;;;;;;;;;;;;;;;;;;4989513;28;19921;-65
2022/05/17 11:58:03;;;;;;;;;;;;;;;;;;4990712;28;19921;-64
2022/05/17 12:00:28;;;;;;;;;;;;;;;;;;5001476;28;20769;-64
2022/05/17 12:02:53;;;;;;;;;;;;;;;;;;4993644;28;19964;-64
2022/05/17 12:05:19;;;;;;;;;;;;;;;;;;4985107;28;19922;-66
2022/05/17 12:07:44;;;;;;;;;;;;;;;;;;4989777;28;19921;-65
2022/05/17 12:10:09;;;;;;;;;;;;;;;;;;4985437;28;20353;-64
2022/05/17 12:12:34;;;;;;;;;;;;;;;;;;4988654;28;20393;-65
2022/05/17 12:14:59;;;;;;;;;;;;;;;;;;4982695;28;20354;-66
2022/05/17 12:17:25;;;;;;;;;;;;;;;;;;5004636;28;20006;-66
2022/05/17 12:19:50;;;;;;;;;;;;;;;;;;4982252;28;19925;-66
2022/05/17 12:22:15;;;;;;;;;;;;;;;;;;4971093;28;19925;-65
2022/05/17 12:24:40;;;;;;;;;;;;;;;;;;5001926;28;19918;-66
2022/05/17 12:27:06;;;;;;;;;;;;;;;;;;4990984;28;20140;-65
2022/05/17 12:32:15;;;;;;;;;;;;;;;;;;4993740;28;19918;-65
2022/05/17 12:34:41;;;;;;;;;;;;;;;;;;4970017;28;19952;-63
2022/05/17 12:37:06;;;;;;;;;;;;;;;;;;4976681;28;20477;-63
2022/05/17 12:44:59;;;;;;;;;;;;;;;;;;4969342;28;19960;-65
2022/05/17 12:47:26;;;;;;;;;;;;;;;;;;4992339;28;20012;-65
2022/05/17 12:49:52;;;;;;;;;;;;;;;;;;4988365;28;20310;-64
2022/05/17 12:52:18;;;;;;;;;;;;;;;;;;4991559;28;20000;-65
2022/05/17 12:54:43;;;;;;;;;;;;;;;;;;4987700;28;20418;-65
2022/05/17 12:57:08;;;;;;;;;;;;;;;;;;4988504;28;19976;-65
2022/05/17 12:59:36;;;;;;;;;;;;;;;;;;4994157;28;19992;-65
2022/05/17 13:02:01;;;;;;;;;;;;;;;;;;4985182;28;19921;-65
2022/05/17 13:04:26;;;;;;;;;;;;;;;;;;4989183;28;19924;-64
2022/05/17 13:06:52;;;;;;;;;;;;;;;;;;4985535;28;19922;-65
2022/05/17 13:09:17;;;;;;;;;;;;;;;;;;4986208;28;20324;-64
2022/05/17 13:11:42;;;;;;;;;;;;;;;;;;4991999;28;19924;-65
2022/05/17 13:14:07;;;;;;;;;;;;;;;;;;4980370;28;19994;-65
2022/05/17 13:16:33;;;;;;;;;;;;;;;;;;4989147;28;20004;-65
2022/05/17 13:18:58;;;;;;;;;;;;;;;;;;4984242;28;19918;-65
2022/05/17 13:21:26;;;;;;;;;;;;;;;;;;4986950;28;19913;-64
2022/05/17 13:23:51;;;;;;;;;;;;;;;;;;4991298;28;19924;-65
2022/05/17 13:26:19;;;;;;;;;;;;;;;;;;4987184;28;19925;-65
2022/05/17 13:28:44;;;;;;;;;;;;;;;;;;4990154;28;19927;-64
2022/05/17 13:31:14;;;;;;;;;;;;;;;;;;4986015;28;19922;-65
2022/05/17 13:33:40;;;;;;;;;;;;;;;;;;4983577;28;20152;-65
2022/05/17 13:36:05;;;;;;;;;;;;;;;;;;4994116;28;19917;-65
2022/05/17 13:38:31;;;;;;;;;;;;;;;;;;4984587;28;19925;-64
2022/05/17 13:40:56;;;;;;;;;;;;;;;;;;4990774;28;19927;-65
2022/05/17 13:43:21;;;;;;;;;;;;;;;;;;4986683;28;19923;-65
2022/05/17 13:45:46;;;;;;;;;;;;;;;;;;4985832;28;20036;-65
2022/05/17 13:48:15;;;;;;;;;;;;;;;;;;4992061;28;20686;-66
2022/05/17 13:50:40;;;;;;;;;;;;;;;;;;4983899;28;20497;-65
2022/05/17 13:53:05;;;;;;;;;;;;;;;;;;5006694;28;19917;-65
2022/05/17 13:55:31;;;;;;;;;;;;;;;;;;4986056;28;19918;-65
2022/05/17 13:57:59;;;;;;;;;;;;;;;;;;4989770;28;19918;-65
2022/05/17 14:00:24;;;;;;;;;;;;;;;;;;4997424;28;19917;-65
2022/05/17 14:02:50;;;;;;;;;;;;;;;;;;4995126;28;19940;-66
2022/05/17 14:05:16;;;;;;;;;;;;;;;;;;4998139;28;19923;-66
2022/05/17 14:07:41;;;;;;;;;;;;;;;;;;4990090;28;19926;-66
2022/05/17 14:12:50;;;;;;;;;;;;;;;;;;4996379;28;19913;-66
2022/05/17 14:15:15;;;;;;;;;;;;;;;;;;4993363;28;19924;-66
2022/05/17 14:17:40;;;;;;;;;;;;;;;;;;4979659;28;19926;-66
2022/05/17 14:20:06;;;;;;;;;;;;;;;;;;5006534;28;20525;-66
2022/05/17 14:22:32;;;;;;;;;;;;;;;;;;4994114;28;19964;-66
2022/05/17 14:24:57;;;;;;;;;;;;;;;;;;5015005;28;19917;-66
2022/05/17 14:27:22;;;;;;;;;;;;;;;;;;4991797;28;19918;-65
2022/05/17 14:29:48;;;;;;;;;;;;;;;;;;4990525;28;20393;-66
2022/05/17 14:32:14;;;;;;;;;;;;;;;;;;5006652;28;20405;-67
2022/05/17 14:34:39;;;;;;;;;;;;;;;;;;4990569;28;19925;-66
2022/05/17 14:37:04;;;;;;;;;;;;;;;;;;4991221;28;19922;-63
2022/05/17 14:39:30;;;;;;;;;;;;;;;;;;4985560;28;20008;-64
2022/05/17 14:41:55;;;;;;;;;;;;;;;;;;5000689;28;19960;-64
2022/05/17 14:44:20;;;;;;;;;;;;;;;;;;4994234;28;21139;-64
2022/05/17 14:46:46;;;;;;;;;;;;;;;;;;4987802;28;19984;-63
2022/05/17 14:49:12;;;;;;;;;;;;;;;;;;4994247;28;19928;-64
2022/05/17 14:51:37;;;;;;;;;;;;;;;;;;4983432;28;19926;-64
2022/05/17 14:54:03;;;;;;;;;;;;;;;;;;4978554;28;19918;-64
2022/05/17 14:56:28;;;;;;;;;;;;;;;;;;4992233;28;20567;-64
2022/05/17 14:58:53;;;;;;;;;;;;;;;;;;4987900;28;20404;-64
2022/05/17 15:01:18;;;;;;;;;;;;;;;;;;4996959;28;20899;-64
2022/05/17 15:03:44;;;;;;;;;;;;;;;;;;4992198;28;19918;-64
2022/05/17 15:06:09;;;;;;;;;;;;;;;;;;4991507;28;19973;-64
2022/05/17 15:08:34;;;;;;;;;;;;;;;;;;4996769;28;19921;-64
2022/05/17 15:10:59;;;;;;;;;;;;;;;;;;4987047;28;19917;-64
2022/05/17 15:13:25;;;;;;;;;;;;;;;;;;4995032;28;19972;-65
2022/05/17 15:15:51;;;;;;;;;;;;;;;;;;4992490;28;20461;-64
2022/05/17 15:18:20;;;;;;;;;;;;;;;;;;4990885;28;20036;-64
2022/05/17 15:20:50;;;;;;;;;;;;;;;;;;4996041;28;20409;-64
2022/05/17 15:23:15;;;;;;;;;;;;;;;;;;4987914;28;19956;-65
2022/05/17 15:25:40;;;;;;;;;;;;;;;;;;4993052;28;20697;-65
2022/05/17 15:28:05;;;;;;;;;;;;;;;;;;4986860;28;20370;-64
2022/05/17 15:30:31;;;;;;;;;;;;;;;;;;4990124;28;20302;-64
2022/05/17 15:32:56;;;;;;;;;;;;;;;;;;4994627;28;19929;-64
2022/05/17 15:35:21;;;;;;;;;;;;;;;;;;4988313;28;20453;-64
2022/05/17 15:37:46;;;;;;;;;;;;;;;;;;4999019;28;20380;-64
2022/05/17 15:40:12;;;;;;;;;;;;;;;;;;4997160;28;19945;-64
2022/05/17 15:42:37;;;;;;;;;;;;;;;;;;4992706;28;20366;-65
2022/05/17 15:45:02;;;;;;;;;;;;;;;;;;5008593;28;20290;-63
2022/05/17 15:55:39;;;;;;;;;;;;;;;;;;4991865;28;19925;-63
2022/05/17 15:58:05;;;;;;;;;;;;;;;;;;4997112;28;19971;-63
2022/05/17 16:00:30;;;;;;;;;;;;;;;;;;4996903;28;19917;-63
2022/05/17 16:02:55;;;;;;;;;;;;;;;;;;4993280;28;19918;-63
2022/05/17 16:05:20;;;;;;;;;;;;;;;;;;4999683;28;19924;-63
2022/05/17 16:08:01;;;;;;;;;;;;;;;;;;4976290;28;20287;-63
2022/05/17 16:10:26;;;;;;;;;;;;;;;;;;4993971;28;19929;-62
2022/05/17 16:12:52;;;;;;;;;;;;;;;;;;4989480;28;19926;-64
2022/05/17 16:15:18;;;;;;;;;;;;;;;;;;4990957;28;19964;-62
2022/05/17 16:17:45;;;;;;;;;;;;;;;;;;5004962;28;19921;-63
2022/05/17 16:20:11;;;;;;;;;;;;;;;;;;4993069;28;19918;-62
2022/05/17 16:22:36;;;;;;;;;;;;;;;;;;4993365;28;19929;-63
2022/05/17 16:25:01;;;;;;;;;;;;;;;;;;4990878;28;20497;-63
2022/05/17 16:27:27;;;;;;;;;;;;;;;;;;4984312;28;20000;-62
2022/05/17 16:29:55;;;;;;;;;;;;;;;;;;4993100;28;19929;-63
2022/05/17 16:32:21;;;;;;;;;;;;;;;;;;4989600;28;20016;-63
2022/05/17 16:34:46;;;;;;;;;;;;;;;;;;4988837;28;19997;-63
2022/05/17 16:37:11;;;;;;;;;;;;;;;;;;4994119;28;20191;-62
2022/05/17 16:39:37;;;;;;;;;;;;;;;;;;4988536;28;19918;-62
2022/05/17 16:42:03;;;;;;;;;;;;;;;;;;4996865;28;19927;-62
2022/05/17 16:44:28;;;;;;;;;;;;;;;;;;5001277;28;19918;-62
2022/05/17 16:46:54;;;;;;;;;;;;;;;;;;5002956;28;19929;-62
2022/05/17 16:49:19;;;;;;;;;;;;;;;;;;4992596;28;19921;-62
2022/05/17 16:51:45;;;;;;;;;;;;;;;;;;4996360;28;20347;-63
2022/05/17 16:54:13;;;;;;;;;;;;;;;;;;4994297;28;19918;-63
2022/05/17 16:56:39;;;;;;;;;;;;;;;;;;4994782;28;19917;-62
2022/05/17 16:59:07;;;;;;;;;;;;;;;;;;4994075;28;20036;-63
2022/05/17 17:01:33;;;;;;;;;;;;;;;;;;4993531;28;19917;-62
2022/05/17 17:03:59;;;;;;;;;;;;;;;;;;4990051;28;19914;-63
2022/05/17 17:06:24;;;;;;;;;;;;;;;;;;5007682;28;19917;-63
2022/05/17 17:08:49;;;;;;;;;;;;;;;;;;4985212;28;19921;-62
2022/05/17 17:11:14;;;;;;;;;;;;;;;;;;4999317;28;19929;-63
2022/05/17 17:13:40;;;;;;;;;;;;;;;;;;4991503;28;20167;-63